createdAt,value
2019-03-02T00:00:53.907Z,57.03
2019-03-02T00:03:19.688Z,60.70
2019-03-02T00:05:45.475Z,59.87
2019-03-02T00:08:11.272Z,56.63
2019-03-02T00:10:40.673Z,55.83
2019-03-02T00:13:07.515Z,53.58
2019-03-02T00:15:32.787Z,44.38
2019-03-02T00:18:00.033Z,42.90
2019-03-02T00:20:25.914Z,44.60
2019-03-02T00:22:51.729Z,39.83
2019-03-02T00:25:17.820Z,41.77
2019-03-02T00:27:43.640Z,43.48
2019-03-02T00:30:11.224Z,38.97
2019-03-02T00:32:37.108Z,46.23
2019-03-02T00:35:07.172Z,38.60
2019-03-02T00:37:32.855Z,34.75
2019-03-02T00:39:59.024Z,35.03
2019-03-02T00:42:27.866Z,39.30
2019-03-02T00:44:53.673Z,43.20
2019-03-02T00:47:19.746Z,33.53
2019-03-02T00:49:45.848Z,31.25
2019-03-02T00:52:11.663Z,34.90
2019-03-02T00:54:43.440Z,39.60
2019-03-02T00:57:08.268Z,40.70
2019-03-02T00:59:35.793Z,44.57
2019-03-02T01:02:04.435Z,47.15
2019-03-02T01:04:29.742Z,40.98
2019-03-02T01:06:55.608Z,41.37
2019-03-02T01:09:24.345Z,53.70
2019-03-02T01:11:50.142Z,51.48
2019-03-02T01:14:17.207Z,49.87
2019-03-02T01:16:42.962Z,50.23
2019-03-02T01:19:14.655Z,42.53
2019-03-02T01:21:41.407Z,51.73
2019-03-02T01:24:07.771Z,59.15
2019-03-02T01:26:33.679Z,53.77
2019-03-02T01:28:59.826Z,44.10
2019-03-02T01:31:25.622Z,50.85
2019-03-02T01:33:51.458Z,45.67
2019-03-02T01:36:18.666Z,51.20
2019-03-02T01:38:44.788Z,55.38
2019-03-02T01:41:14.080Z,54.00
2019-03-02T01:43:41.451Z,42.58
2019-03-02T01:46:08.332Z,43.42
2019-03-02T01:48:34.405Z,45.95
2019-03-02T01:51:03.363Z,49.58
2019-03-02T01:53:29.513Z,47.50
2019-03-02T01:55:58.856Z,54.30
2019-03-02T01:58:27.885Z,48.73
2019-03-02T02:00:52.443Z,50.92
2019-03-02T02:03:18.268Z,47.00
2019-03-02T02:05:44.075Z,44.73
2019-03-02T02:08:10.783Z,53.37
2019-03-02T02:10:39.741Z,50.03
2019-03-02T02:13:06.228Z,54.27
2019-03-02T02:15:32.559Z,47.05
2019-03-02T02:17:58.356Z,52.93
2019-03-02T02:20:24.160Z,46.57
2019-03-02T02:22:53.108Z,49.97
2019-03-02T02:25:19.709Z,51.30
2019-03-02T02:27:48.448Z,47.88
2019-03-02T02:30:26.724Z,46.48
2019-03-02T02:32:53.024Z,44.27
2019-03-02T02:35:18.900Z,46.30
2019-03-02T02:37:45.026Z,46.63
2019-03-02T02:40:12.779Z,43.90
2019-03-02T02:42:43.426Z,48.70
2019-03-02T02:45:15.190Z,42.10
2019-03-02T02:47:41.153Z,52.05
2019-03-02T02:50:13.129Z,38.43
2019-03-02T02:52:38.938Z,41.80
2019-03-02T02:55:05.341Z,42.20
2019-03-02T02:57:33.509Z,48.52
2019-03-02T02:59:59.740Z,42.05
2019-03-02T03:02:25.571Z,38.60
2019-03-02T03:04:51.409Z,48.03
2019-03-02T03:07:17.209Z,41.80
2019-03-02T03:09:49.506Z,57.57
2019-03-02T03:12:17.968Z,42.00
2019-03-02T03:14:43.340Z,45.78
2019-03-02T03:17:09.171Z,58.03
2019-03-02T03:19:34.957Z,46.10
2019-03-02T03:22:02.381Z,42.53
2019-03-02T03:24:28.526Z,44.55
2019-03-02T03:26:54.437Z,52.43
2019-03-02T03:29:20.261Z,43.90
2019-03-02T03:31:46.071Z,43.97
2019-03-02T03:34:11.930Z,40.60
2019-03-02T03:36:37.973Z,38.63
2019-03-02T03:39:07.140Z,40.45
2019-03-02T03:41:33.212Z,41.58
2019-03-02T03:43:59.022Z,38.47
2019-03-02T03:46:24.831Z,38.33
2019-03-02T03:48:51.418Z,40.83
2019-03-02T03:51:18.609Z,48.15
2019-03-02T03:53:44.705Z,45.40
2019-03-02T03:56:10.829Z,37.50
2019-03-02T03:58:39.787Z,40.67
2019-03-02T04:01:04.435Z,39.48
2019-03-02T04:03:30.331Z,44.27
2019-03-02T04:05:56.489Z,38.33
2019-03-02T04:08:24.388Z,37.28
2019-03-02T04:10:50.550Z,45.23
2019-03-02T04:13:16.363Z,35.65
2019-03-02T04:15:43.459Z,41.90
2019-03-02T04:18:39.434Z,33.98
2019-03-02T04:21:05.245Z,31.75
2019-03-02T04:23:31.282Z,28.07
2019-03-02T04:25:58.257Z,38.10
2019-03-02T04:28:27.702Z,37.93
2019-03-02T04:30:51.807Z,25.15
2019-03-02T04:33:17.890Z,43.10
2019-03-02T04:35:43.803Z,36.40
2019-03-02T04:38:09.891Z,34.80
2019-03-02T04:40:35.679Z,33.55
2019-03-02T04:43:01.491Z,31.20
2019-03-02T04:45:27.688Z,27.60
2019-03-02T04:47:54.580Z,31.65
2019-03-02T04:50:23.501Z,31.10
2019-03-02T04:52:50.004Z,28.70
2019-03-02T04:55:16.046Z,29.25
2019-03-02T04:57:43.153Z,34.60
2019-03-02T05:00:13.926Z,34.78
2019-03-02T05:02:39.739Z,30.88
2019-03-02T05:05:08.439Z,31.80
2019-03-02T05:07:33.267Z,30.52
2019-03-02T05:09:59.110Z,42.47
2019-03-02T05:12:24.921Z,33.73
2019-03-02T05:14:50.721Z,36.27
2019-03-02T05:17:16.543Z,35.40
2019-03-02T05:19:42.631Z,31.47
2019-03-02T05:22:08.431Z,32.88
2019-03-02T05:24:34.240Z,34.47
2019-03-02T05:27:00.070Z,36.67
2019-03-02T05:29:25.868Z,40.20
2019-03-02T05:31:51.704Z,40.93
2019-03-02T05:34:17.502Z,37.50
2019-03-02T05:36:43.580Z,34.90
2019-03-02T05:39:09.382Z,36.23
2019-03-02T05:41:35.690Z,37.23
2019-03-02T05:44:02.906Z,45.43
2019-03-02T05:46:29.027Z,40.77
2019-03-02T05:48:55.129Z,34.63
2019-03-02T05:51:20.971Z,38.58
2019-03-02T05:53:46.798Z,42.20
2019-03-02T05:56:12.633Z,37.77
2019-03-02T05:58:38.413Z,40.40
2019-03-02T06:01:04.239Z,43.93
2019-03-02T06:03:30.045Z,39.70
2019-03-02T06:05:55.871Z,35.23
2019-03-02T06:08:21.688Z,40.90
2019-03-02T06:10:47.495Z,36.70
2019-03-02T06:13:14.398Z,37.70
2019-03-02T06:15:42.923Z,55.83
2019-03-02T06:18:08.805Z,52.08
2019-03-02T06:20:35.648Z,52.67
2019-03-02T06:23:02.318Z,44.03
2019-03-02T06:25:28.135Z,47.10
2019-03-02T06:27:53.950Z,44.00
2019-03-02T06:30:22.544Z,52.90
2019-03-02T06:32:48.335Z,45.95
2019-03-02T06:35:16.403Z,46.98
2019-03-02T06:37:42.245Z,45.15
2019-03-02T06:40:16.060Z,44.80
2019-03-02T06:42:41.848Z,39.92
2019-03-02T06:45:30.989Z,41.95
2019-03-02T06:47:56.852Z,49.67
2019-03-02T06:50:22.629Z,59.23
2019-03-02T06:52:48.449Z,58.90
2019-03-02T06:55:15.151Z,41.03
2019-03-02T06:57:40.960Z,48.45
2019-03-02T07:00:15.062Z,42.03
2019-03-02T07:02:40.887Z,43.70
2019-03-02T07:05:07.567Z,48.13
2019-03-02T07:07:33.474Z,41.95
2019-03-02T07:09:59.278Z,52.77
2019-03-02T07:12:25.066Z,34.90
2019-03-02T07:14:51.792Z,38.17
2019-03-02T07:17:19.735Z,35.38
2019-03-02T07:19:48.703Z,37.17
2019-03-02T07:22:16.847Z,39.83
2019-03-02T07:24:43.146Z,34.70
2019-03-02T07:27:08.954Z,39.80
2019-03-02T07:29:35.053Z,41.30
2019-03-02T07:32:00.870Z,42.53
2019-03-02T07:34:27.002Z,44.17
2019-03-02T07:36:53.088Z,33.35
2019-03-02T07:39:19.374Z,31.70
2019-03-02T07:41:45.431Z,36.38
2019-03-02T07:44:11.210Z,44.08
2019-03-02T07:46:37.043Z,47.30
2019-03-02T07:49:02.820Z,39.80
2019-03-02T07:51:28.914Z,30.73
2019-03-02T07:53:54.755Z,35.35
2019-03-02T07:56:20.876Z,36.20
2019-03-02T07:58:46.678Z,41.42
2019-03-02T08:01:16.604Z,36.37
2019-03-02T08:03:40.481Z,36.68
2019-03-02T08:06:06.304Z,30.60
2019-03-02T08:08:32.376Z,36.73
2019-03-02T08:10:58.201Z,30.85
2019-03-02T08:13:23.991Z,33.33
2019-03-02T08:15:49.795Z,37.20
2019-03-02T08:18:15.911Z,33.83
2019-03-02T08:20:41.746Z,26.73
2019-03-02T08:23:07.571Z,31.97
2019-03-02T08:25:33.352Z,27.80
2019-03-02T08:27:59.176Z,30.17
2019-03-02T08:30:29.952Z,29.40
2019-03-02T08:32:57.764Z,32.58
2019-03-02T08:35:23.718Z,26.55
2019-03-02T08:37:49.525Z,29.43
2019-03-02T08:40:19.480Z,32.53
2019-03-02T08:42:46.470Z,29.90
2019-03-02T08:45:16.060Z,32.23
2019-03-02T08:47:42.150Z,26.97
2019-03-02T08:50:21.492Z,24.40
2019-03-02T08:52:47.385Z,22.82
2019-03-02T08:55:18.941Z,31.50
2019-03-02T08:57:44.762Z,27.67
2019-03-02T09:00:14.579Z,33.23
2019-03-02T09:02:40.785Z,28.65
2019-03-02T09:05:06.902Z,29.18
2019-03-02T09:07:32.731Z,28.87
2019-03-02T09:09:58.559Z,26.03
2019-03-02T09:12:24.474Z,29.63
2019-03-02T09:14:50.293Z,28.37
2019-03-02T09:17:17.724Z,26.50
2019-03-02T09:19:43.945Z,27.25
2019-03-02T09:22:09.761Z,34.33
2019-03-02T09:24:35.597Z,32.83
2019-03-02T09:27:01.705Z,26.80
2019-03-02T09:29:27.490Z,30.35
2019-03-02T09:31:53.320Z,29.67
2019-03-02T09:34:19.124Z,23.60
2019-03-02T09:36:45.040Z,25.80
2019-03-02T09:39:10.915Z,26.73
2019-03-02T09:41:36.763Z,34.13
2019-03-02T09:44:02.953Z,17.43
2019-03-02T09:46:28.780Z,25.00
2019-03-02T09:48:56.882Z,26.40
2019-03-02T09:51:22.359Z,23.50
2019-03-02T09:53:48.152Z,25.90
2019-03-02T09:56:15.939Z,22.30
2019-03-02T09:58:41.880Z,24.32
2019-03-02T10:01:08.015Z,19.13
2019-03-02T10:03:33.839Z,25.68
2019-03-02T10:05:59.650Z,25.83
2019-03-02T10:08:25.453Z,23.30
2019-03-02T10:10:54.246Z,19.67
2019-03-02T10:13:20.058Z,18.50
2019-03-02T10:15:48.682Z,19.20
2019-03-02T10:18:14.871Z,19.45
2019-03-02T10:20:43.794Z,22.20
2019-03-02T10:23:09.568Z,29.27
2019-03-02T10:25:38.418Z,24.23
2019-03-02T10:28:05.057Z,22.82
2019-03-02T10:30:34.462Z,23.80
2019-03-02T10:33:00.242Z,21.70
2019-03-02T10:35:26.072Z,20.63
2019-03-02T10:37:52.198Z,21.53
2019-03-02T10:40:19.058Z,28.38
2019-03-02T10:42:45.156Z,25.82
2019-03-02T10:45:13.378Z,31.80
2019-03-02T10:47:39.258Z,23.98
2019-03-02T10:50:10.562Z,23.43
2019-03-02T10:52:36.370Z,26.37
2019-03-02T10:55:03.982Z,24.80
2019-03-02T10:57:29.777Z,19.48
2019-03-02T10:59:55.610Z,22.33
2019-03-02T11:02:25.860Z,22.20
2019-03-02T11:04:53.574Z,20.72
2019-03-02T11:07:24.322Z,26.25
2019-03-02T11:10:04.229Z,23.32
2019-03-02T11:12:39.763Z,27.25
2019-03-02T11:15:25.092Z,22.95
2019-03-02T11:17:55.674Z,18.10
2019-03-02T11:20:41.937Z,22.65
2019-03-02T11:23:15.713Z,45.38
2019-03-02T11:25:42.926Z,20.88
2019-03-02T11:28:13.427Z,18.52
2019-03-02T11:30:41.445Z,18.80
2019-03-02T11:33:30.688Z,16.12
2019-03-02T11:36:10.650Z,17.70
2019-03-02T11:38:44.441Z,16.07
2019-03-02T11:41:18.198Z,20.82
2019-03-02T11:43:57.853Z,15.00
2019-03-02T11:46:28.507Z,13.38
2019-03-02T11:48:59.105Z,14.73
2019-03-02T11:51:45.244Z,14.43
2019-03-02T11:54:18.787Z,12.30
2019-03-02T11:56:46.868Z,17.40
2019-03-02T11:59:26.646Z,15.08
2019-03-02T12:02:15.701Z,13.05
2019-03-02T12:04:42.935Z,12.68
2019-03-02T12:07:16.591Z,20.55
2019-03-02T12:10:05.321Z,14.28
2019-03-02T12:12:51.264Z,9.28
2019-03-02T12:15:28.323Z,9.45
2019-03-02T12:17:58.728Z,13.65
2019-03-02T12:20:41.441Z,9.20
2019-03-02T12:23:25.026Z,14.80
2019-03-02T12:26:11.040Z,14.70
2019-03-02T12:28:44.620Z,11.30
2019-03-02T12:31:12.321Z,14.30
2019-03-02T12:33:40.318Z,21.70
2019-03-02T12:36:20.290Z,10.72
2019-03-02T12:38:51.044Z,16.95
2019-03-02T12:41:19.073Z,11.50
2019-03-02T12:44:02.981Z,16.23
2019-03-02T12:46:51.328Z,15.85
2019-03-02T12:49:35.630Z,13.38
2019-03-02T12:52:12.181Z,22.85
2019-03-02T12:54:42.862Z,13.45
2019-03-02T12:57:14.746Z,10.68
2019-03-02T12:59:49.056Z,14.78
2019-03-02T13:02:33.545Z,10.78
2019-03-02T13:05:04.372Z,11.15
2019-03-02T13:07:34.969Z,13.08
2019-03-02T13:10:05.453Z,13.40
2019-03-02T13:12:42.180Z,11.48
2019-03-02T13:15:09.551Z,23.10
2019-03-02T13:17:38.509Z,20.43
2019-03-02T13:20:14.361Z,12.80
2019-03-02T13:22:48.513Z,11.08
2019-03-02T13:25:34.098Z,12.95
2019-03-02T13:28:11.769Z,21.35
2019-03-02T13:30:47.275Z,10.60
2019-03-02T13:33:24.244Z,13.45
2019-03-02T13:36:00.230Z,12.85
2019-03-02T13:38:34.611Z,12.93
2019-03-02T13:41:19.175Z,14.43
2019-03-02T13:43:46.884Z,21.87
2019-03-02T13:46:14.615Z,11.45
2019-03-02T13:48:50.165Z,13.70
2019-03-02T13:51:31.322Z,12.68
2019-03-02T13:54:03.023Z,13.43
2019-03-02T13:56:34.445Z,14.45
2019-03-02T13:59:04.893Z,9.80
2019-03-02T14:01:35.685Z,11.35
2019-03-02T14:04:13.066Z,11.15
2019-03-02T14:06:59.267Z,16.80
2019-03-02T14:09:32.913Z,13.70
2019-03-02T14:12:19.737Z,24.00
2019-03-02T14:14:49.540Z,13.18
2019-03-02T14:17:32.429Z,10.93
2019-03-02T14:20:20.590Z,13.53
2019-03-02T14:22:59.353Z,9.03
2019-03-02T14:25:27.329Z,12.82
2019-03-02T14:27:57.699Z,17.32
2019-03-02T14:30:36.335Z,12.80
2019-03-02T14:33:04.489Z,16.67
2019-03-02T14:35:32.457Z,12.23
2019-03-02T14:38:12.441Z,16.20
2019-03-02T14:40:40.786Z,11.73
2019-03-02T14:43:11.462Z,9.40
2019-03-02T14:45:43.136Z,18.52
2019-03-02T14:48:17.736Z,9.00
2019-03-02T14:50:48.332Z,9.50
2019-03-02T14:53:25.193Z,11.97
2019-03-02T14:56:02.373Z,14.10
2019-03-02T14:58:39.612Z,13.25
2019-03-02T15:01:16.496Z,14.07
2019-03-02T15:04:07.304Z,19.00
2019-03-02T15:06:47.560Z,16.80
2019-03-02T15:09:15.248Z,12.60
2019-03-02T15:14:25.654Z,17.25
2019-03-02T15:16:53.656Z,13.72
2019-03-02T15:19:27.335Z,14.85
2019-03-02T15:21:55.452Z,12.65
2019-03-02T15:24:38.209Z,13.22
2019-03-02T15:27:05.907Z,8.43
2019-03-02T15:29:46.323Z,10.75
2019-03-02T15:32:28.688Z,9.63
2019-03-02T15:34:57.882Z,13.32
2019-03-02T15:37:32.459Z,12.95
2019-03-02T15:40:02.710Z,14.73
2019-03-02T15:42:36.469Z,11.22
2019-03-02T15:45:23.353Z,18.75
2019-03-02T15:48:10.381Z,17.45
2019-03-02T15:50:40.917Z,15.23
2019-03-02T15:53:20.333Z,14.87
2019-03-02T15:55:59.864Z,11.43
2019-03-02T15:58:27.542Z,10.35
2019-03-02T16:01:03.322Z,13.88
2019-03-02T16:03:33.715Z,14.43
2019-03-02T16:06:05.152Z,14.58
2019-03-02T16:08:32.863Z,12.90
2019-03-02T16:11:06.142Z,11.05
2019-03-02T16:13:50.612Z,15.43
2019-03-02T16:16:28.877Z,13.68
2019-03-02T16:19:15.145Z,15.88
2019-03-02T16:21:45.939Z,13.53
2019-03-02T16:24:28.923Z,10.78
2019-03-02T16:26:56.921Z,9.58
2019-03-02T16:29:30.754Z,14.80
2019-03-02T16:32:01.525Z,12.13
2019-03-02T16:34:47.467Z,10.15
2019-03-02T16:37:17.029Z,11.95
2019-03-02T16:39:46.837Z,16.65
2019-03-02T16:42:29.710Z,15.70
2019-03-02T16:44:57.400Z,19.10
2019-03-02T16:47:31.503Z,8.85
2019-03-02T16:49:59.238Z,9.40
2019-03-02T16:52:44.302Z,9.28
2019-03-02T16:55:21.230Z,14.13
2019-03-02T16:57:57.760Z,8.68
2019-03-02T17:00:37.432Z,12.73
2019-03-02T17:03:11.683Z,13.45
2019-03-02T17:05:42.010Z,13.38
2019-03-02T17:08:12.876Z,11.35
2019-03-02T17:10:56.071Z,12.07
2019-03-02T17:13:27.765Z,12.43
2019-03-02T17:15:58.839Z,13.00
2019-03-02T17:18:41.729Z,14.90
2019-03-02T17:21:16.539Z,10.85
2019-03-02T17:23:46.085Z,15.03
2019-03-02T17:26:14.097Z,13.43
2019-03-02T17:28:41.804Z,16.02
2019-03-02T17:31:09.814Z,18.62
2019-03-02T17:33:37.533Z,13.45
2019-03-02T17:36:10.915Z,19.52
2019-03-02T17:38:38.898Z,17.60
2019-03-02T17:41:19.567Z,15.08
2019-03-02T17:43:47.699Z,10.78
2019-03-02T17:46:17.988Z,13.00
2019-03-02T17:48:51.482Z,13.13
2019-03-02T17:51:37.117Z,9.38
2019-03-02T17:54:08.020Z,19.77
2019-03-02T17:56:52.647Z,24.60
2019-03-02T17:59:39.693Z,13.03
2019-03-02T18:02:09.006Z,14.90
2019-03-02T18:04:53.534Z,5.65
2019-03-02T18:07:21.511Z,11.40
2019-03-02T18:10:07.319Z,11.90
2019-03-02T18:12:35.038Z,8.50
2019-03-02T18:15:02.749Z,25.60
2019-03-02T18:17:47.194Z,11.70
2019-03-02T18:20:15.996Z,14.63
2019-03-02T18:22:42.976Z,8.50
2019-03-02T18:25:11.976Z,13.48
2019-03-02T18:27:38.709Z,8.20
2019-03-02T18:30:08.393Z,11.88
2019-03-02T18:32:35.436Z,19.30
2019-03-02T18:35:02.741Z,9.25
2019-03-02T18:37:30.531Z,14.50
2019-03-02T18:39:58.274Z,15.85
2019-03-02T18:42:27.042Z,12.25
2019-03-02T18:44:54.613Z,15.80
2019-03-02T18:47:20.233Z,25.92
2019-03-02T18:49:51.491Z,11.87
2019-03-02T18:52:21.261Z,10.40
2019-03-02T18:54:49.277Z,16.77
2019-03-02T18:57:16.098Z,23.57
2019-03-02T18:59:43.364Z,20.77
2019-03-02T19:02:11.628Z,26.60
2019-03-02T19:04:38.596Z,14.85
2019-03-02T19:07:04.988Z,20.10
2019-03-02T19:09:32.360Z,22.65
2019-03-02T19:11:59.104Z,13.30
2019-03-02T19:14:24.896Z,20.27
2019-03-02T19:16:53.927Z,10.17
2019-03-02T19:19:19.725Z,7.22
2019-03-02T19:21:45.552Z,17.43
2019-03-02T19:24:11.344Z,7.47
2019-03-02T19:26:37.439Z,10.13
2019-03-02T19:29:03.335Z,15.88
2019-03-02T19:31:29.175Z,9.77
2019-03-02T19:33:55.238Z,9.20
2019-03-02T19:36:21.060Z,18.98
2019-03-02T19:38:46.949Z,11.70
2019-03-02T19:41:12.761Z,12.90
2019-03-02T19:43:38.739Z,14.83
2019-03-02T19:46:04.656Z,11.83
2019-03-02T19:48:31.440Z,7.40
2019-03-02T19:50:57.234Z,8.68
2019-03-02T19:53:23.357Z,13.23
2019-03-02T19:55:49.153Z,10.35
2019-03-02T19:58:14.996Z,13.97
2019-03-02T20:00:41.220Z,9.30
2019-03-02T20:03:07.155Z,13.10
2019-03-02T20:05:32.969Z,22.67
2019-03-02T20:07:58.784Z,6.53
2019-03-02T20:10:25.371Z,16.73
2019-03-02T20:12:51.171Z,10.00
2019-03-02T20:15:19.787Z,10.40
2019-03-02T20:17:45.598Z,7.55
2019-03-02T20:20:13.626Z,15.03
2019-03-02T20:22:40.129Z,8.55
2019-03-02T20:25:08.955Z,13.85
2019-03-02T20:27:34.854Z,12.93
2019-03-02T20:30:00.660Z,10.67
2019-03-02T20:32:26.754Z,15.77
2019-03-02T20:34:52.557Z,4.83
2019-03-02T20:37:18.440Z,7.43
2019-03-02T20:39:44.252Z,10.67
2019-03-02T20:42:10.086Z,12.57
2019-03-02T20:44:35.911Z,6.93
2019-03-02T20:47:01.746Z,5.83
2019-03-02T20:49:27.553Z,4.93
2019-03-02T20:51:53.468Z,11.20
2019-03-02T20:54:19.305Z,5.17
2019-03-02T20:56:45.386Z,6.33
2019-03-02T20:59:11.592Z,4.70
2019-03-02T21:01:37.678Z,5.83
2019-03-02T21:04:03.734Z,6.67
2019-03-02T21:06:29.558Z,5.37
2019-03-02T21:08:55.598Z,10.53
2019-03-02T21:11:21.385Z,5.42
2019-03-02T21:13:47.508Z,8.27
2019-03-02T21:16:13.565Z,7.90
2019-03-02T21:18:39.378Z,4.80
2019-03-02T21:21:05.220Z,9.70
2019-03-02T21:23:31.080Z,7.63
2019-03-02T21:25:56.911Z,6.70
2019-03-02T21:28:25.518Z,6.67
2019-03-02T21:30:51.345Z,2.87
2019-03-02T21:33:20.187Z,9.70
2019-03-02T21:35:45.982Z,4.05
2019-03-02T21:38:15.171Z,3.80
2019-03-02T21:40:40.986Z,5.17
2019-03-02T21:43:09.961Z,5.03
2019-03-02T21:45:35.790Z,6.22
2019-03-02T21:48:04.445Z,3.17
2019-03-02T21:50:38.667Z,3.62
2019-03-02T21:53:04.574Z,6.75
2019-03-02T21:55:30.438Z,1.60
2019-03-02T21:57:56.505Z,4.13
2019-03-02T22:00:26.968Z,2.87
2019-03-02T22:02:52.889Z,3.62
2019-03-02T22:05:18.681Z,2.77
2019-03-02T22:07:44.469Z,5.13
2019-03-02T22:10:14.099Z,3.50
2019-03-02T22:12:39.972Z,11.45
2019-03-02T22:15:09.081Z,6.50
2019-03-02T22:17:34.886Z,3.67
2019-03-02T22:20:00.734Z,2.60
2019-03-02T22:22:26.691Z,2.93
2019-03-02T22:24:52.517Z,4.33
2019-03-02T22:27:18.337Z,3.30
2019-03-02T22:29:44.139Z,7.47
2019-03-02T22:32:09.986Z,3.10
2019-03-02T22:34:37.961Z,3.90
2019-03-02T22:37:03.739Z,2.60
2019-03-02T22:39:29.894Z,1.70
2019-03-02T22:41:55.963Z,3.15
2019-03-02T22:44:21.819Z,1.80
2019-03-02T22:46:50.594Z,7.00
2019-03-02T22:49:16.382Z,1.82
2019-03-02T22:51:45.256Z,5.33
2019-03-02T22:54:11.089Z,1.40
2019-03-02T22:56:39.673Z,1.50
2019-03-02T22:59:05.375Z,9.10
2019-03-02T23:01:38.552Z,2.43
2019-03-02T23:04:04.692Z,1.75
2019-03-02T23:06:30.749Z,5.03
2019-03-02T23:08:57.753Z,3.72
2019-03-02T23:11:23.681Z,3.25
2019-03-02T23:13:49.810Z,1.20
2019-03-02T23:16:15.671Z,2.12
2019-03-02T23:18:41.496Z,1.63
2019-03-02T23:21:07.313Z,1.00
2019-03-02T23:23:35.913Z,2.27
2019-03-02T23:26:01.764Z,1.52
2019-03-02T23:28:29.796Z,1.40
2019-03-02T23:30:55.867Z,1.77
2019-03-02T23:33:26.504Z,1.25
2019-03-02T23:35:52.359Z,2.33
2019-03-02T23:38:19.573Z,1.50
2019-03-02T23:40:46.110Z,1.10
2019-03-02T23:43:12.203Z,1.32
2019-03-02T23:45:38.464Z,1.80
2019-03-02T23:48:04.251Z,2.80
2019-03-02T23:50:32.912Z,6.13
2019-03-02T23:52:58.850Z,2.20
2019-03-02T23:55:26.056Z,2.00
2019-03-02T23:57:52.162Z,1.95
